createdAt,value
2023-03-01T00:00:38.719Z,32.10
2023-03-01T00:04:51.212Z,33.05
2023-03-01T00:09:03.939Z,26.88
2023-03-01T00:13:16.877Z,32.00
2023-03-01T00:17:31.387Z,31.45
2023-03-01T00:21:44.055Z,31.92
2023-03-01T00:25:58.953Z,27.42
2023-03-01T00:30:12.162Z,28.33
2023-03-01T00:34:24.572Z,36.58
2023-03-01T00:38:40.521Z,24.52
2023-03-01T00:42:53.139Z,30.50
2023-03-01T00:47:05.566Z,32.40
2023-03-01T00:51:19.991Z,27.42
2023-03-01T00:55:32.522Z,28.73
2023-03-01T00:59:45.655Z,27.95
2023-03-01T01:04:01.228Z,30.95
2023-03-01T01:08:13.764Z,23.45
2023-03-01T01:12:26.205Z,29.98
2023-03-01T01:16:38.631Z,20.75
2023-03-01T01:20:51.027Z,29.80
2023-03-01T01:25:03.708Z,26.58
2023-03-01T01:29:16.394Z,20.92
2023-03-01T01:33:29.226Z,23.83
2023-03-01T01:37:41.607Z,21.98
2023-03-01T01:41:54.061Z,18.45
2023-03-01T01:46:19.907Z,22.25
2023-03-01T01:50:39.047Z,15.82
2023-03-01T01:59:12.473Z,21.30
2023-03-01T02:03:30.192Z,25.52
2023-03-01T02:07:43.782Z,17.58
2023-03-01T02:11:56.390Z,15.93
2023-03-01T02:16:15.599Z,14.93
2023-03-01T02:20:32.814Z,15.30
2023-03-01T02:24:50.845Z,15.63
2023-03-01T02:29:03.266Z,16.23
2023-03-01T02:33:16.671Z,15.48
2023-03-01T02:37:32.142Z,17.60
2023-03-01T02:41:49.803Z,15.20
2023-03-01T02:46:09.001Z,13.02
2023-03-01T02:50:30.633Z,12.57
2023-03-01T02:55:14.310Z,13.00
2023-03-01T02:59:32.981Z,10.68
2023-03-01T03:03:45.997Z,12.90
2023-03-01T03:08:01.394Z,10.75
2023-03-01T03:12:16.112Z,11.73
2023-03-01T03:16:28.971Z,10.60
2023-03-01T03:20:43.192Z,11.70
2023-03-01T03:24:55.543Z,7.53
2023-03-01T03:29:09.127Z,11.13
2023-03-01T03:33:21.550Z,9.05
2023-03-01T03:37:52.137Z,10.77
2023-03-01T03:42:04.472Z,12.68
2023-03-01T03:46:18.255Z,8.02
2023-03-01T03:50:30.740Z,12.30
2023-03-01T03:54:43.102Z,12.60
2023-03-01T03:58:55.509Z,8.68
2023-03-01T04:03:08.204Z,8.93
2023-03-01T04:07:20.668Z,11.02
2023-03-01T04:11:34.025Z,9.45
2023-03-01T04:15:46.674Z,11.05
2023-03-01T04:20:00.199Z,10.98
2023-03-01T04:24:13.689Z,13.82
2023-03-01T04:28:28.536Z,11.18
2023-03-01T04:32:41.031Z,6.43
2023-03-01T04:36:54.566Z,10.52
2023-03-01T04:41:14.609Z,6.78
2023-03-01T04:45:27.182Z,11.65
2023-03-01T04:49:40.012Z,7.90
2023-03-01T04:53:52.452Z,9.15
2023-03-01T04:58:05.845Z,12.00
2023-03-01T05:02:18.228Z,8.90
2023-03-01T05:06:30.884Z,11.25
2023-03-01T05:10:43.372Z,9.77
2023-03-01T05:14:55.684Z,10.88
2023-03-01T05:19:16.397Z,12.60
2023-03-01T05:23:30.241Z,10.98
2023-03-01T05:27:42.826Z,13.85
2023-03-01T05:32:16.979Z,8.75
2023-03-01T05:36:29.834Z,10.82
2023-03-01T05:40:47.149Z,8.32
2023-03-01T05:44:59.504Z,8.95
2023-03-01T05:49:14.615Z,9.93
2023-03-01T05:53:27.801Z,8.32
2023-03-01T05:57:40.179Z,11.27
2023-03-01T06:01:52.554Z,10.45
2023-03-01T06:06:05.103Z,10.23
2023-03-01T06:10:18.844Z,10.70
2023-03-01T06:14:31.421Z,14.02
2023-03-01T06:18:44.243Z,9.18
2023-03-01T06:22:57.462Z,11.48
2023-03-01T06:27:10.171Z,9.02
2023-03-01T06:31:23.575Z,7.18
2023-03-01T06:35:36.350Z,19.25
2023-03-01T06:39:48.894Z,10.55
2023-03-01T06:44:01.406Z,16.38
2023-03-01T06:48:13.790Z,10.57
2023-03-01T06:52:26.312Z,9.88
2023-03-01T06:56:38.706Z,10.60
2023-03-01T07:00:51.215Z,14.80
2023-03-01T07:05:03.816Z,15.98
2023-03-01T07:09:20.960Z,11.25
2023-03-01T07:13:33.587Z,10.10
2023-03-01T07:17:48.848Z,16.17
2023-03-01T07:22:01.274Z,11.27
2023-03-01T07:26:13.700Z,10.55
2023-03-01T07:30:29.794Z,11.13
2023-03-01T07:34:42.364Z,12.00
2023-03-01T07:38:56.906Z,14.07
2023-03-01T07:43:09.285Z,14.50
2023-03-01T07:47:21.728Z,10.82
2023-03-01T07:51:34.055Z,11.90
2023-03-01T07:55:46.338Z,15.13
2023-03-01T07:59:58.737Z,19.23
2023-03-01T08:04:11.811Z,17.05
2023-03-01T08:08:24.223Z,18.40
2023-03-01T08:12:36.699Z,13.93
2023-03-01T08:16:51.383Z,11.90
2023-03-01T08:21:08.123Z,18.33
2023-03-01T08:25:20.534Z,13.07
2023-03-01T08:29:34.109Z,12.90
2023-03-01T08:33:56.402Z,13.65
2023-03-01T08:38:08.868Z,13.65
2023-03-01T08:42:21.246Z,17.50
2023-03-01T08:46:39.493Z,12.40
2023-03-01T08:50:52.400Z,11.55
2023-03-01T08:55:05.138Z,10.57
2023-03-01T08:59:18.834Z,15.52
2023-03-01T09:03:31.376Z,14.63
2023-03-01T09:07:44.081Z,12.73
2023-03-01T09:11:57.046Z,11.60
2023-03-01T09:16:10.229Z,17.58
2023-03-01T09:20:23.452Z,15.55
2023-03-01T09:24:35.820Z,21.80
2023-03-01T09:28:52.085Z,15.18
2023-03-01T09:33:04.641Z,15.73
2023-03-01T09:37:16.958Z,13.40
2023-03-01T09:41:43.991Z,17.83
2023-03-01T09:46:00.199Z,16.33
2023-03-01T09:50:20.853Z,15.48
2023-03-01T09:54:33.436Z,19.15
2023-03-01T09:59:23.358Z,19.98
2023-03-01T10:03:46.627Z,21.03
2023-03-01T10:08:05.212Z,18.95
2023-03-01T10:12:21.964Z,18.07
2023-03-01T10:16:55.837Z,21.70
2023-03-01T10:21:21.690Z,25.00
2023-03-01T10:25:42.451Z,18.55
2023-03-01T10:30:27.828Z,18.15
2023-03-01T10:34:43.130Z,21.38
2023-03-01T10:38:58.967Z,21.58
2023-03-01T10:43:14.787Z,19.95
2023-03-01T10:47:29.175Z,25.25
2023-03-01T10:51:43.835Z,17.00
2023-03-01T10:56:16.739Z,24.27
2023-03-01T11:00:29.221Z,19.88
2023-03-01T11:04:57.299Z,19.88
2023-03-01T11:09:28.580Z,21.20
2023-03-01T11:14:03.171Z,22.95
2023-03-01T11:18:44.339Z,20.58
2023-03-01T11:23:14.377Z,18.85
2023-03-01T11:27:30.299Z,19.00
2023-03-01T11:31:56.743Z,18.60
2023-03-01T11:36:32.596Z,22.08
2023-03-01T11:40:50.066Z,19.23
2023-03-01T11:45:07.888Z,19.77
2023-03-01T11:49:41.609Z,39.83
2023-03-01T11:54:20.215Z,27.95
2023-03-01T11:58:55.444Z,29.15
2023-03-01T12:03:22.729Z,28.23
2023-03-01T12:07:55.509Z,24.73
2023-03-01T12:12:44.656Z,24.10
2023-03-01T12:17:34.435Z,23.80
2023-03-01T12:22:08.122Z,25.37
2023-03-01T12:26:20.580Z,26.58
2023-03-01T12:30:44.719Z,23.10
2023-03-01T12:35:15.730Z,30.55
2023-03-01T12:39:42.381Z,24.48
2023-03-01T12:44:13.579Z,23.95
2023-03-01T12:48:31.606Z,26.00
2023-03-01T12:52:59.689Z,27.45
2023-03-01T12:57:38.355Z,16.00
2023-03-01T13:02:16.933Z,21.20
2023-03-01T13:06:43.294Z,16.77
2023-03-01T13:11:07.116Z,20.40
2023-03-01T13:15:25.596Z,19.50
2023-03-01T13:19:38.125Z,23.95
2023-03-01T13:23:50.554Z,20.23
2023-03-01T13:28:39.467Z,22.08
2023-03-01T13:32:52.133Z,25.10
2023-03-01T13:37:20.950Z,23.30
2023-03-01T13:41:48.009Z,25.45
2023-03-01T13:46:01.322Z,18.83
2023-03-01T13:50:40.647Z,26.80
2023-03-01T13:54:55.073Z,19.20
2023-03-01T13:59:16.164Z,22.13
2023-03-01T14:03:31.029Z,22.55
2023-03-01T14:07:43.415Z,17.95
2023-03-01T14:12:07.690Z,26.67
2023-03-01T14:16:41.937Z,21.85
2023-03-01T14:20:54.376Z,21.10
2023-03-01T14:25:21.774Z,23.20
2023-03-01T14:29:39.659Z,19.42
2023-03-01T14:34:00.729Z,29.45
2023-03-01T14:38:24.935Z,23.65
2023-03-01T14:42:38.154Z,25.45
2023-03-01T14:46:58.448Z,23.67
2023-03-01T14:51:13.613Z,22.33
2023-03-01T14:55:43.030Z,23.48
2023-03-01T15:00:04.347Z,18.02
2023-03-01T15:04:17.272Z,25.30
2023-03-01T15:08:34.284Z,24.00
2023-03-01T15:12:46.645Z,25.45
2023-03-01T15:16:59.253Z,36.95
2023-03-01T15:21:31.345Z,31.42
2023-03-01T15:25:46.275Z,24.48
2023-03-01T15:30:03.507Z,24.48
2023-03-01T15:34:33.382Z,28.02
2023-03-01T15:38:59.189Z,29.52
2023-03-01T15:43:43.591Z,25.48
2023-03-01T15:48:21.589Z,30.73
2023-03-01T15:52:42.085Z,33.30
2023-03-01T15:56:54.785Z,23.20
2023-03-01T16:01:14.153Z,22.45
2023-03-01T16:05:30.128Z,27.45
2023-03-01T16:09:43.500Z,31.80
2023-03-01T16:13:56.115Z,35.03
2023-03-01T16:18:11.479Z,34.35
2023-03-01T16:22:26.424Z,32.45
2023-03-01T16:26:39.415Z,26.10
2023-03-01T16:30:52.226Z,35.28
2023-03-01T16:35:05.171Z,25.95
2023-03-01T16:39:18.005Z,36.25
2023-03-01T16:43:31.561Z,32.60
2023-03-01T16:47:44.058Z,43.72
2023-03-01T16:51:56.465Z,38.05
2023-03-01T16:56:11.423Z,41.25
2023-03-01T17:00:24.237Z,35.83
2023-03-01T17:04:37.000Z,36.30
2023-03-01T17:08:49.542Z,28.75
2023-03-01T17:13:02.025Z,29.17
2023-03-01T17:17:15.608Z,26.30
2023-03-01T17:21:27.944Z,41.40
2023-03-01T17:25:47.067Z,40.33
2023-03-01T17:29:59.382Z,42.05
2023-03-01T17:34:11.899Z,54.58
2023-03-01T17:38:24.445Z,39.08
2023-03-01T17:42:36.901Z,35.63
2023-03-01T17:46:49.267Z,25.90
2023-03-01T17:51:07.379Z,31.50
2023-03-01T17:55:19.916Z,28.55
2023-03-01T17:59:33.775Z,32.42
2023-03-01T18:03:47.703Z,39.58
2023-03-01T18:08:00.329Z,31.90
2023-03-01T18:12:12.899Z,24.92
2023-03-01T18:16:25.357Z,30.85
2023-03-01T18:20:37.746Z,45.42
2023-03-01T18:24:53.148Z,38.20
2023-03-01T18:29:05.713Z,34.63
2023-03-01T18:33:17.949Z,30.02
2023-03-01T18:37:30.323Z,31.73
2023-03-01T18:41:42.684Z,26.50
2023-03-01T18:45:59.489Z,31.17
2023-03-01T18:50:12.334Z,33.13
2023-03-01T18:54:24.716Z,37.10
2023-03-01T19:02:51.321Z,31.23
2023-03-01T19:07:04.263Z,33.05
2023-03-01T19:11:19.643Z,33.28
2023-03-01T19:15:32.094Z,40.22
2023-03-01T19:19:45.937Z,44.30
2023-03-01T19:23:59.760Z,41.65
2023-03-01T19:28:12.188Z,39.53
2023-03-01T19:32:24.575Z,42.80
2023-03-01T19:36:37.173Z,39.65
2023-03-01T19:40:49.717Z,43.78
2023-03-01T19:45:02.216Z,41.58
2023-03-01T19:49:14.631Z,43.17
2023-03-01T19:53:27.315Z,41.33
2023-03-01T19:57:42.065Z,38.53
2023-03-01T20:01:56.247Z,37.03
2023-03-01T20:06:13.290Z,41.65
2023-03-01T20:10:26.865Z,38.00
2023-03-01T20:14:39.776Z,40.80
2023-03-01T20:18:54.571Z,35.00
2023-03-01T20:23:07.370Z,34.13
2023-03-01T20:27:19.870Z,41.28
2023-03-01T20:31:32.399Z,46.63
2023-03-01T20:35:44.888Z,48.65
2023-03-01T20:39:57.341Z,50.60
2023-03-01T20:44:10.044Z,40.20
2023-03-01T20:48:22.804Z,43.67
2023-03-01T20:52:45.837Z,40.08
2023-03-01T20:56:59.685Z,39.67
2023-03-01T21:01:18.262Z,42.13
2023-03-01T21:05:31.748Z,56.08
2023-03-01T21:09:45.099Z,58.05
2023-03-01T21:13:57.636Z,49.10
2023-03-01T21:18:10.034Z,52.67
2023-03-01T21:22:22.511Z,55.20
2023-03-01T21:26:35.074Z,49.97
2023-03-01T21:30:47.577Z,56.80
2023-03-01T21:35:00.304Z,54.75
2023-03-01T21:39:15.399Z,48.67
2023-03-01T21:43:28.136Z,50.50
2023-03-01T21:47:40.748Z,43.95
2023-03-01T21:51:53.128Z,46.33
2023-03-01T21:56:06.612Z,47.30
2023-03-01T22:00:23.580Z,50.45
2023-03-01T22:04:36.005Z,49.45
2023-03-01T22:08:52.186Z,46.97
2023-03-01T22:13:04.594Z,43.30
2023-03-01T22:17:16.959Z,48.60
2023-03-01T22:21:29.361Z,54.60
2023-03-01T22:25:42.655Z,54.92
2023-03-01T22:29:54.917Z,53.25
2023-03-01T22:34:07.761Z,58.67
2023-03-01T22:38:20.182Z,65.35
2023-03-01T22:42:32.794Z,64.75
2023-03-01T22:46:46.980Z,59.15
2023-03-01T22:50:59.300Z,62.30
2023-03-01T22:55:11.995Z,62.42
2023-03-01T22:59:24.642Z,60.13
2023-03-01T23:03:37.018Z,69.28
2023-03-01T23:07:49.486Z,60.65
2023-03-01T23:12:06.887Z,65.15
2023-03-01T23:16:20.292Z,60.50
2023-03-01T23:20:36.487Z,62.05
2023-03-01T23:24:49.178Z,59.78
2023-03-01T23:29:01.607Z,63.33
2023-03-01T23:33:14.092Z,59.55
2023-03-01T23:37:31.142Z,49.47
2023-03-01T23:41:43.618Z,45.35
2023-03-01T23:45:56.117Z,49.63
2023-03-01T23:50:09.778Z,42.05
2023-03-01T23:54:25.170Z,41.42
2023-03-01T23:58:37.666Z,37.45
